Terminal Aerodrome Forecast
Issued by NWS

Home | Current Version | Previous Version | Text Only | Print | Product List | Glossary On
Versions: 1 2 3 4 5 6 7 8 9 10 11 12 13 14 15 16
683
FTUS41 KCAR 261838 AAA
TAFBHB
TAF AMD
KBHB 261838Z 2619/2718 21008KT P6SM VCSH BKN003
     FM261905 22009KT P6SM BKN006
     FM270200 26008KT P6SM BKN060
     FM271600 21006KT P6SM BKN045=

USA.gov is the U.S. government's official web portal to all federal, state and local government web resources and services.